AirNav   TITAN Aviation Fuels
 
 1229 users online  

S78 Emmett Municipal Airport
Emmett, Idaho, USA

GOING TO EMMETT?


FAA INFORMATION EFFECTIVE 15 JULY 2021

Location

FAA Identifier: S78
Lat/Long: 43-51-09.5400N 116-32-20.6500W
43-51.159000N 116-32.344167W
43.8526500,-116.5390694
(estimated)
Elevation: 2354 ft. / 717 m (estimated)
Variation: 17E (1985)
From city: 3 miles SW of EMMETT, ID
Time zone: UTC -6 (UTC -7 during Standard Time)
Zip code: 83617

Airport Operations

Airport use: Open to the public
Activation date: 12/1944
Control tower: no
ARTCC: SALT LAKE CITY CENTER
FSS: BOISE FLIGHT SERVICE STATION
NOTAMs facility: BOI (NOTAM-D service available)
Attendance: UNATNDD
Wind indicator: lighted
Segmented circle: yes
Lights: ACTVT MIRL RY 10/28-CTAF.
Beacon: white-green (lighted land airport)
Operates sunset to sunrise.

Airport Communications

CTAF: 122.9
WX AWOS-3PT at EUL (13 nm S): 135.075 (208-454-3953)
WX AWOS-3 at MAN (16 nm S): 118.325 (208 318-0040)

Nearby radio navigation aids

VOR radial/distance  VOR name  Freq  Var
BOIr303/23.5BOISE VORTAC113.3017E

Airport Services

Fuel available: 100LL
100LL:FUEL AVAILABLE 24 HOURS SELF SERVE CREDIT CARD
Parking: tiedowns
Airframe service: NONE
Powerplant service: NONE
Bottled oxygen: NONE
Bulk oxygen: NONE

Runway Information

Runway 10/28

Dimensions: 3307 x 55 ft. / 1008 x 17 m
Surface: asphalt, in good condition
Weight bearing capacity: 
Single wheel: 8.0
Runway edge lights: medium intensity
Runway edge markings: RWY 10 DSPLCD THLD MARKINGS YELLOW.
RUNWAY 10  RUNWAY 28
Latitude: 43-51.281000N43-51.037000N
Longitude: 116-32.680333W116-32.008000W
Elevation: 2351.0 ft.2354.0 ft.
Traffic pattern: leftleft
Runway heading: 099 magnetic, 116 true279 magnetic, 296 true
Declared distances: TORA:2934 TODA:2934TORA:3107 TODA:3107
Markings: NSTD, in good conditionbasic, in good condition
Obstructions: 25 ft. tree, 207 ft. from runway, 75 ft. right of centerline
APCH SLP 0:1 AT DTHR; 25 FT TREE AT 207 FT, 75 FT R.
3 ft. fence, 200 ft. from runway, 25 ft. left of centerline
10 FT PVT ROAD AT 0 FT, 100 FT L; +5 FT FENCE AT 190 FT ON CENTERLINE.

Airport Ownership and Management from official FAA records

Ownership: Publicly-owned
Owner: CITY OF EMMETT
501 EAST MAIN STREET
EMMETT, ID 83617
Phone (208) 365-9569
MOBILE (208) 941-1251
Manager: CLINT SEAMONS
601 E 3RD ST
EMMETT, ID 83617
Phone (208) 365-9569
MOBILE (208) 941-7365

Airport Operational Statistics

Aircraft based on the field: 21
Single engine airplanes: 21
    
Aircraft operations: avg 33/day *
50% transient general aviation
48% local general aviation
2% air taxi
* for 12-month period ending 26 January 2018

Additional Remarks

GOLF COURSE ON BOTH SIDES OF RWY.
1800' X 20' PVT GRVL AGG RWY LCTD ADJCNT NW OF ARPT.
GOLF COURSE ROAD CROSSES NEAR RWY 28 THLD. WATCH FOR GOLFERS ON RWY.
FOR CD CTC BIG SKY APCH AT 208-364-5860/5861.
A51-28 RWY 28 DISPLACED THLD MARKED WITH WHITE BAR AND WHITE CHEVRONS ONLY.

Instrument Procedures

There are no published instrument procedures at S78.

Some nearby airports with instrument procedures:

KEUL - Caldwell Industrial Airport (13 nm S)
KMAN - Nampa Municipal Airport (16 nm S)
KBOI - Boise Air Terminal/Gowen Field (22 nm SE)
KONO - Ontario Municipal Airport (23 nm NW)
S87 - Weiser Municipal Airport (28 nm NW)
 
Loc | Ops | Rwys | IFR | FBO | Links
Com | Nav | Svcs | Stats | Notes
Area around S78 (Emmett Municipal Airport)
 
Road maps at: MapQuest Bing Google
 
Aerial photo
WARNING: Photo may not be current or correct
Aerial photo of S78 (Emmett Municipal Airport)
Do you have a better or more recent aerial photo of Emmett Municipal Airport that you would like to share? If so, please send us your photo.

 
Sectional chart

 
Airport distance calculator
Flying to Emmett Municipal Airport? Find the distance to fly.

From to S78

Sunrise and sunset
Times for 31-Jul-2021
 Local
(UTC-6)
 Zulu
(UTC)
Morning civil twilight06:0212:02
Sunrise06:3512:35
Sunset21:1003:10
Evening civil twilight21:4303:43

Current date and time
Zulu (UTC)  31-Jul-2021 16:19:35
Local (UTC-6)  31-Jul-2021 10:19:35
 
METAR
KEUL 
15nm S 
311556Z AUTO 14010KT 10SM CLR 29/16 A3008 RMK AO2 SLP157 T02940161
KMAN 
16nm S 
311555Z AUTO 15006KT 10SM CLR 29/16 A3009 RMK A01
KBOI 
22nm SE 
311553Z 20007KT 10SM FU CLR 28/14 A3010 RMK AO2 SLP158 T02780144
KONO 
23nm NW 
311553Z AUTO 15007KT 10SM CLR 31/16 A3008 RMK AO2 SLP162 T03060161
TAF
KEUL 
15nm S 
311140Z 3112/0112 13010KT P6SM VCSH SCT100 BKN150 FM312100 14010KT P6SM VCTS BKN050CB TEMPO 3121/0101 VRB15G25KT 2SM TSRA FM010400 VRB06KT 6SM -TSRA BKN015 BKN035CB TEMPO 0104/0108 VRB15G25KT 1SM TSRA FM010800 VRB06KT P6SM BKN006
NOTAMs
Click for the latest NOTAMs
NOTAMs are issued by the DoD/FAA and will open in a separate window not controlled by AirNav.

 

 
 

FBO, Fuel Providers, and Aircraft Ground Support

  
 Business Name 
 
 Contact 
 
 Services / Description 
 
Fuel Prices
 
Comments
  
Back Country Fuel Stop 208-861-9055
208-861-9056
[email]
Aviation fuel, Courtesy cars (free for pilots to use in the local area), Restrooms, Restaurant

More info about Back Country Fuel Stop
Phillips 66
100LL
SS $5.16 
 Updated 08-Jul-2021
 
   1 read write
SS=Self service
Update Fuel Prices
 

Would you like to see your business listed on this page?

 If your business provides an interesting product or service to pilots, flight crews, aircraft, or users of the Emmett Municipal Airport, you should consider listing it here.  To start the listing process, click on the button below
 
Add a business
 

Other Pages about Emmett Municipal Airport

City of Emmett/Emmett Municipal Airport
 
Update a link
 
Copyright © AirNav, LLC. All rights reserved. Privacy Policy  Contact